Time;durP1;ratioP1;P1;durP2;ratioP2;P2;SDS_P1;SDS_P2;PMS_P1;PMS_P2;Temp;Humidity;BMP_temperature;BMP_pressure;BME280_temperature;BME280_humidity;BME280_pressure;Samples;Min_cycle;Max_cycle;Signal;HPM_P1;HPM_P2
2023/02/10 00:01:16;;;;;;;0.50;0.50;;;;;;;3.07;70.15;100897.50;5104514;28;20080;-72
2023/02/10 00:03:42;;;;;;;0.60;0.60;;;;;;;3.06;71.15;100883.81;5104765;28;20035;-73
2023/02/10 00:06:08;;;;;;;0.60;0.60;;;;;;;3.03;71.85;100891.44;5104757;28;20028;-73
2023/02/10 00:08:34;;;;;;;0.60;0.60;;;;;;;2.97;71.25;100906.63;5104989;28;20365;-73
2023/02/10 00:11:03;;;;;;;0.50;0.50;;;;;;;3.01;71.77;100912.72;5106890;28;20451;-73
2023/02/10 00:13:29;;;;;;;0.50;0.50;;;;;;;2.96;72.15;100908.31;5091712;28;20035;-75
2023/02/10 00:15:57;;;;;;;0.60;0.60;;;;;;;2.90;71.46;100887.63;5109730;28;20498;-72
2023/02/10 00:18:22;;;;;;;0.60;0.60;;;;;;;2.89;69.65;100893.53;5113727;28;20098;-71
2023/02/10 00:20:48;;;;;;;0.60;0.60;;;;;;;2.89;69.45;100908.94;5109975;28;20016;-72
2023/02/10 00:23:13;;;;;;;0.50;0.50;;;;;;;2.88;69.06;100914.00;5108232;28;20075;-73
2023/02/10 00:25:39;;;;;;;0.70;0.70;;;;;;;2.84;69.27;100908.78;5108008;28;20020;-73
2023/02/10 00:28:04;;;;;;;0.50;0.50;;;;;;;2.94;71.61;100925.34;5089890;28;20027;-72
2023/02/10 00:30:31;;;;;;;0.50;0.50;;;;;;;2.83;70.12;100919.88;5107875;28;20469;-72
2023/02/10 00:32:56;;;;;;;0.50;0.50;;;;;;;2.87;70.99;100919.97;5089674;28;20073;-74
2023/02/10 00:35:21;;;;;;;0.50;0.50;;;;;;;2.84;71.60;100920.75;5107993;28;20027;-72
2023/02/10 00:37:47;;;;;;;0.55;0.55;;;;;;;2.88;72.24;100934.53;5089645;28;20361;-73
2023/02/10 00:40:13;;;;;;;0.55;0.55;;;;;;;2.75;71.13;100915.34;5106397;28;20035;-74
2023/02/10 00:42:38;;;;;;;0.60;0.60;;;;;;;2.84;72.65;100915.63;5107909;28;20028;-72
2023/02/10 00:45:04;;;;;;;0.50;0.50;;;;;;;2.85;72.40;100943.00;5107686;28;20024;-73
2023/02/10 00:47:29;;;;;;;0.50;0.50;;;;;;;2.87;73.07;100961.00;5107563;28;20144;-73
2023/02/10 00:49:55;;;;;;;0.60;0.60;;;;;;;2.84;73.75;100962.66;5107767;28;20028;-74
2023/02/10 00:52:22;;;;;;;0.60;0.60;;;;;;;2.79;74.21;100964.22;5107724;28;20020;-73
2023/02/10 00:54:48;;;;;;;0.60;0.60;;;;;;;2.84;75.17;100975.47;5107883;28;20028;-73
2023/02/10 00:57:13;;;;;;;0.60;0.60;;;;;;;2.82;75.47;100977.13;5107473;28;20031;-72
2023/02/10 00:59:38;;;;;;;0.60;0.60;;;;;;;2.79;75.16;100973.59;5107406;28;20375;-73
2023/02/10 01:02:04;;;;;;;0.60;0.60;;;;;;;2.79;75.77;100977.03;5107568;28;20024;-73
2023/02/10 01:04:29;;;;;;;0.50;0.50;;;;;;;2.73;74.48;100970.00;5107493;28;20027;-73
2023/02/10 01:06:55;;;;;;;0.60;0.60;;;;;;;2.77;74.69;100978.66;5107336;28;20020;-72
2023/02/10 01:09:20;;;;;;;0.60;0.60;;;;;;;2.76;74.18;100982.06;5107483;28;20031;-73
2023/02/10 01:11:46;;;;;;;0.50;0.50;;;;;;;2.78;75.52;100961.59;5107285;28;20024;-71
2023/02/10 01:14:11;;;;;;;0.50;0.50;;;;;;;2.78;75.17;100985.53;5089046;28;20028;-71
2023/02/10 01:16:37;;;;;;;0.52;0.52;;;;;;;2.69;72.96;100980.09;5106976;28;20161;-72
2023/02/10 01:19:02;;;;;;;0.50;0.50;;;;;;;2.76;73.71;100983.75;5107382;28;20024;-73
2023/02/10 01:21:28;;;;;;;2.33;2.22;;;;;;;2.72;74.58;100986.22;5089532;28;20046;-72
2023/02/10 01:23:55;;;;;;;6.78;1.48;;;;;;;2.70;74.25;100990.41;5106321;28;20028;-72
2023/02/10 01:26:21;;;;;;;0.50;0.50;;;;;;;2.69;74.57;100991.25;5107280;28;20422;-73
2023/02/10 01:28:47;;;;;;;0.60;0.60;;;;;;;2.62;75.66;100984.13;5106973;28;20024;-73
2023/02/10 01:31:19;;;;;;;0.50;0.50;;;;;;;2.65;76.03;101009.88;5106575;28;20073;-71
2023/02/10 01:33:45;;;;;;;0.70;0.70;;;;;;;2.64;74.72;101009.84;5088825;28;20023;-71
2023/02/10 01:36:13;;;;;;;0.50;0.50;;;;;;;2.69;76.60;101018.56;5106782;28;20083;-71
2023/02/10 01:38:40;;;;;;;0.55;0.55;;;;;;;2.65;76.40;101024.41;5106861;28;20028;-70
2023/02/10 01:41:06;;;;;;;1.88;1.77;;;;;;;2.55;74.49;101013.84;5106729;28;20020;-73
2023/02/10 01:43:33;;;;;;;0.50;0.50;;;;;;;2.61;74.73;101015.75;5106760;28;20032;-72
2023/02/10 01:45:58;;;;;;;0.60;0.60;;;;;;;2.60;74.72;101017.41;5106597;28;20054;-70
2023/02/10 01:48:25;;;;;;;0.60;0.60;;;;;;;2.58;73.32;101026.78;5106294;28;20048;-71
2023/02/10 01:50:54;;;;;;;0.82;0.80;;;;;;;2.58;74.83;101028.44;5106409;28;20032;-71
2023/02/10 01:53:22;;;;;;;0.50;0.50;;;;;;;2.61;75.65;101041.38;5106528;28;20024;-71
2023/02/10 01:55:52;;;;;;;0.60;0.60;;;;;;;2.56;75.06;101048.03;5106436;28;20020;-70
2023/02/10 01:58:21;;;;;;;0.50;0.50;;;;;;;2.54;75.71;101047.13;5106453;28;20053;-71
2023/02/10 02:00:47;;;;;;;0.60;0.60;;;;;;;2.59;76.53;101055.81;5106185;28;20020;-72
2023/02/10 02:03:13;;;;;;;0.60;0.60;;;;;;;2.54;74.30;101055.66;5088312;28;20169;-72
2023/02/10 02:05:41;;;;;;;0.60;0.60;;;;;;;2.55;75.11;101069.38;5106232;28;20028;-72
2023/02/10 02:08:06;;;;;;;0.47;0.47;;;;;;;2.54;75.13;101070.19;5106242;28;20079;-71
2023/02/10 02:10:59;;;;;;;0.60;0.60;;;;;;;2.54;74.15;101070.19;5105956;28;20024;-71
2023/02/10 02:13:43;;;;;;;0.50;0.50;;;;;;;2.53;75.62;101058.16;5091728;28;20036;-71
2023/02/10 02:16:16;;;;;;;0.60;0.60;;;;;;;2.52;75.68;101059.00;5106082;28;20143;-71
2023/02/10 02:18:57;;;;;;;0.50;0.50;;;;;;;2.50;75.35;101056.38;5106007;28;20053;-72
2023/02/10 02:21:45;;;;;;;0.60;0.60;;;;;;;2.46;74.06;101070.78;5106002;28;20027;-71
2023/02/10 02:24:31;;;;;;;0.50;0.50;;;;;;;2.42;73.40;101056.13;5075674;28;20040;-71
2023/02/10 02:27:25;;;;;;;0.60;0.60;;;;;;;2.41;73.15;101074.84;5105970;28;20024;-71
2023/02/10 02:30:28;;;;;;;0.60;0.60;;;;;;;2.43;74.92;101065.53;5103741;28;20044;-72
2023/02/10 02:32:59;;;;;;;0.60;0.60;;;;;;;2.44;75.82;101064.75;5105605;28;20083;-71
2023/02/10 02:35:30;;;;;;;0.63;0.63;;;;;;;2.37;74.03;101065.31;5086637;28;20471;-72
2023/02/10 02:37:56;;;;;;;0.70;0.70;;;;;;;2.44;75.39;101064.75;5105749;28;20020;-72
2023/02/10 02:40:21;;;;;;;0.47;0.47;;;;;;;2.36;75.29;101071.28;5105641;28;20032;-71
2023/02/10 02:42:48;;;;;;;0.60;0.60;;;;;;;2.39;74.20;101089.31;5105848;28;20372;-71
2023/02/10 02:45:19;;;;;;;0.60;0.60;;;;;;;2.42;74.92;101091.13;5105721;28;20027;-72
2023/02/10 02:47:53;;;;;;;0.52;0.52;;;;;;;2.45;75.06;101096.34;5105346;28;20044;-71
2023/02/10 02:50:36;;;;;;;0.60;0.60;;;;;;;2.43;75.34;101092.88;5105426;28;20020;-71
2023/02/10 02:53:39;;;;;;;0.52;0.52;;;;;;;2.40;75.35;101093.63;5105620;28;20016;-71
2023/02/10 02:56:15;;;;;;;0.47;0.47;;;;;;;2.38;75.62;101087.56;5087698;28;20055;-72
2023/02/10 02:58:53;;;;;;;0.50;0.50;;;;;;;2.32;73.54;101087.34;5105894;28;20049;-71
2023/02/10 03:01:42;;;;;;;0.60;0.60;;;;;;;2.33;74.45;101084.81;5105410;28;20469;-72
2023/02/10 03:04:10;;;;;;;0.52;0.52;;;;;;;2.22;73.50;101065.66;5105615;28;20042;-72
2023/02/10 03:06:36;;;;;;;0.50;0.50;;;;;;;2.33;74.06;101091.66;5105727;28;20036;-72
2023/02/10 03:09:01;;;;;;;0.60;0.60;;;;;;;2.29;74.05;101093.22;5105530;28;20109;-72
2023/02/10 03:11:27;;;;;;;0.60;0.60;;;;;;;2.26;74.71;101090.56;5105725;28;20056;-72
2023/02/10 03:13:52;;;;;;;0.63;0.63;;;;;;;2.29;74.39;101102.59;5105053;28;20028;-72
2023/02/10 03:16:17;;;;;;;0.50;0.50;;;;;;;2.27;75.43;101087.16;5105405;28;20055;-73
2023/02/10 03:18:43;;;;;;;0.50;0.50;;;;;;;2.26;74.52;101090.56;5106733;28;20048;-72
2023/02/10 03:21:08;;;;;;;0.50;0.50;;;;;;;2.27;74.29;101097.41;5105694;28;20103;-73
2023/02/10 03:23:34;;;;;;;0.52;0.52;;;;;;;2.26;73.89;101084.56;5105225;28;20056;-73
2023/02/10 03:26:00;;;;;;;0.60;0.60;;;;;;;2.26;73.80;101094.81;5104911;28;20035;-72
2023/02/10 03:28:26;;;;;;;0.50;0.50;;;;;;;2.22;73.98;101089.56;5104070;28;20024;-72
2023/02/10 03:30:52;;;;;;;0.60;0.60;;;;;;;2.12;74.67;101076.38;5085507;28;20062;-72
2023/02/10 03:33:18;;;;;;;0.50;0.50;;;;;;;2.17;74.93;101075.69;5104956;28;20024;-72
2023/02/10 03:35:44;;;;;;;0.60;0.60;;;;;;;2.19;73.27;101092.00;5105513;28;20036;-72
2023/02/10 03:38:10;;;;;;;0.52;0.52;;;;;;;2.12;72.79;101079.81;5106135;28;20020;-71
2023/02/10 03:40:36;;;;;;;0.50;0.50;;;;;;;2.09;72.47;101093.34;5088286;28;20362;-72
2023/02/10 03:43:03;;;;;;;0.63;0.63;;;;;;;2.20;72.21;101101.47;5086873;28;20500;-70
2023/02/10 03:45:28;;;;;;;0.60;0.60;;;;;;;2.21;72.79;101116.00;5105166;28;20059;-71
2023/02/10 03:47:54;;;;;;;0.57;0.57;;;;;;;2.22;73.96;101107.50;5108702;28;20048;-72
2023/02/10 03:50:20;;;;;;;0.60;0.60;;;;;;;2.22;73.00;101111.78;5108970;28;20077;-72
2023/02/10 03:52:45;;;;;;;0.50;0.50;;;;;;;2.20;73.48;101109.16;5108895;28;20032;-70
2023/02/10 03:55:17;;;;;;;0.50;0.50;;;;;;;2.18;71.43;101090.28;5109082;28;20038;-72
2023/02/10 03:57:42;;;;;;;0.60;0.60;;;;;;;2.26;72.77;101094.81;5108961;28;20020;-72
2023/02/10 04:00:08;;;;;;;0.60;0.60;;;;;;;2.21;73.03;101087.84;5108638;28;20020;-73
2023/02/10 04:02:34;;;;;;;0.60;0.60;;;;;;;2.27;74.72;101106.81;5108519;28;20031;-71
2023/02/10 04:04:59;;;;;;;2.00;1.90;;;;;;;2.23;75.02;101104.16;5108811;28;20016;-70
2023/02/10 04:07:25;;;;;;;0.50;0.50;;;;;;;2.20;73.83;101108.28;5090347;28;20028;-71
2023/02/10 04:09:50;;;;;;;0.60;0.60;;;;;;;2.19;74.32;101117.63;5108509;28;20027;-72
2023/02/10 04:12:16;;;;;;;0.60;0.60;;;;;;;2.25;75.04;101132.38;5108401;28;20027;-74
2023/02/10 04:14:41;;;;;;;0.60;0.60;;;;;;;2.21;73.37;101138.19;5108677;28;20057;-73
2023/02/10 04:17:06;;;;;;;0.60;0.60;;;;;;;2.19;73.64;101139.84;5107030;28;20016;-72
2023/02/10 04:19:32;;;;;;;0.60;0.60;;;;;;;2.18;73.29;101149.22;5108414;28;20046;-73
2023/02/10 04:21:57;;;;;;;0.60;0.60;;;;;;;2.18;74.52;101149.22;5108263;28;20034;-73
2023/02/10 04:24:23;;;;;;;0.60;0.60;;;;;;;1.96;72.81;101127.91;5108369;28;20050;-72
2023/02/10 04:26:48;;;;;;;0.50;0.50;;;;;;;2.21;75.03;101153.56;5108178;28;20107;-72
2023/02/10 04:29:14;;;;;;;0.60;0.60;;;;;;;2.20;74.78;101160.41;5090027;28;20020;-73
2023/02/10 04:31:39;;;;;;;0.50;0.50;;;;;;;2.15;74.22;101164.47;5107801;28;20024;-72
2023/02/10 04:34:05;;;;;;;0.50;0.50;;;;;;;2.12;74.25;101166.91;5108192;28;20030;-72
2023/02/10 04:36:30;;;;;;;0.60;0.60;;;;;;;2.13;76.00;101173.75;5108080;28;20020;-72
2023/02/10 04:38:55;;;;;;;0.60;0.60;;;;;;;2.04;74.11;101173.41;5108125;28;20035;-71
2023/02/10 04:41:21;;;;;;;0.60;0.60;;;;;;;2.06;74.84;101185.47;5107892;28;20020;-73
2023/02/10 04:43:46;;;;;;;0.60;0.60;;;;;;;2.07;75.27;101186.34;5107954;28;20031;-72
2023/02/10 04:46:12;;;;;;;0.60;0.60;;;;;;;2.07;74.89;101188.91;5107905;28;20030;-73
2023/02/10 04:48:37;;;;;;;0.60;0.60;;;;;;;2.03;75.26;101187.03;5107428;28;20067;-73
2023/02/10 04:51:08;;;;;;;1.40;1.40;;;;;;;1.96;73.26;101191.94;5107407;28;20028;-72
2023/02/10 04:53:33;;;;;;;1.50;1.50;;;;;;;1.98;72.92;101177.47;5107837;28;20436;-72
2023/02/10 04:55:58;;;;;;;0.50;0.50;;;;;;;2.04;73.51;101184.53;5107529;28;20031;-72
2023/02/10 04:58:24;;;;;;;0.60;0.60;;;;;;;2.04;72.54;101202.47;5106665;28;20099;-74
2023/02/10 05:00:49;;;;;;;0.50;0.50;;;;;;;2.07;72.57;101207.72;5107530;28;20016;-73
2023/02/10 05:03:15;;;;;;;0.50;0.50;;;;;;;2.06;74.10;101208.50;5107253;28;20091;-70
2023/02/10 05:05:40;;;;;;;0.60;0.60;;;;;;;2.06;74.28;101221.31;5107839;28;20067;-74
2023/02/10 05:08:06;;;;;;;0.60;0.60;;;;;;;2.07;74.54;101211.97;5107384;28;20049;-72
2023/02/10 05:10:32;;;;;;;0.60;0.60;;;;;;;2.04;73.35;101210.16;5089088;28;20020;-71
2023/02/10 05:12:57;;;;;;;0.60;0.60;;;;;;;2.03;71.98;101194.72;5107351;28;20032;-73
2023/02/10 05:15:23;;;;;;;0.55;0.55;;;;;;;2.10;71.58;101187.34;5089013;28;20047;-71
2023/02/10 05:17:48;;;;;;;0.50;0.50;;;;;;;2.06;70.87;101193.13;5106903;28;20023;-72
2023/02/10 05:20:14;;;;;;;0.60;0.60;;;;;;;2.11;70.56;101195.88;5107066;28;20020;-71
2023/02/10 05:22:39;;;;;;;0.60;0.60;;;;;;;2.12;70.70;101213.03;5107071;28;20419;-72
2023/02/10 05:25:06;;;;;;;0.60;0.60;;;;;;;2.11;72.82;101211.25;5107029;28;20020;-72
2023/02/10 05:27:32;;;;;;;0.50;0.50;;;;;;;2.12;73.61;101218.16;5107189;28;20060;-71
2023/02/10 05:29:58;;;;;;;0.60;0.60;;;;;;;2.11;74.59;101226.63;5106831;28;20023;-71
2023/02/10 05:32:24;;;;;;;0.60;0.60;;;;;;;2.19;75.69;101237.19;5106914;28;20073;-72
2023/02/10 05:34:49;;;;;;;0.50;0.50;;;;;;;2.10;76.00;101241.13;5088707;28;20024;-72
2023/02/10 05:37:15;;;;;;;0.50;0.50;;;;;;;2.08;76.74;101245.31;5106672;28;20103;-72
2023/02/10 05:39:40;;;;;;;0.60;0.60;;;;;;;2.12;76.11;101250.56;5106900;28;20431;-72
2023/02/10 05:42:06;;;;;;;0.57;0.57;;;;;;;2.08;74.45;101249.56;5106623;28;20024;-72
2023/02/10 05:44:31;;;;;;;0.50;0.50;;;;;;;1.97;75.44;101241.44;5106664;28;20026;-72
2023/02/10 05:46:57;;;;;;;0.50;0.50;;;;;;;1.96;74.32;101252.50;5106405;28;20048;-72
2023/02/10 05:49:23;;;;;;;0.60;0.60;;;;;;;1.94;74.16;101266.94;5088389;28;20031;-73
2023/02/10 05:51:49;;;;;;;0.50;0.50;;;;;;;1.98;75.39;101259.44;5106599;28;20031;-73
2023/02/10 05:54:15;;;;;;;0.50;0.50;;;;;;;1.88;74.65;101257.31;5106503;28;20020;-72
2023/02/10 05:56:41;;;;;;;0.50;0.50;;;;;;;1.92;75.07;101255.75;5088282;28;20028;-73
2023/02/10 05:59:06;;;;;;;0.70;0.70;;;;;;;1.90;73.56;101268.47;5106880;28;20019;-72
2023/02/10 06:01:32;;;;;;;0.57;0.57;;;;;;;1.90;73.95;101255.69;5106928;28;20030;-75
2023/02/10 06:03:58;;;;;;;0.75;0.75;;;;;;;1.87;74.56;101254.69;5111836;28;20088;-72
2023/02/10 06:06:24;;;;;;;0.50;0.50;;;;;;;1.95;74.84;101272.13;5109011;28;20418;-72
2023/02/10 06:08:49;;;;;;;0.60;0.60;;;;;;;1.88;74.87;101272.69;5089017;28;20047;-72
2023/02/10 06:11:15;;;;;;;0.60;0.60;;;;;;;1.87;76.05;101286.28;5106951;28;20019;-73
2023/02/10 06:13:41;;;;;;;0.50;0.50;;;;;;;1.88;76.37;101287.16;5106521;28;20024;-72
2023/02/10 06:16:08;;;;;;;0.60;0.60;;;;;;;1.84;74.76;101291.28;5107273;28;20024;-68
2023/02/10 06:18:34;;;;;;;0.50;0.50;;;;;;;1.78;74.39;101273.97;5109923;28;20020;-77
2023/02/10 06:20:59;;;;;;;0.57;0.57;;;;;;;1.81;74.71;101263.88;5108117;28;20031;-74
2023/02/10 06:23:25;;;;;;;0.57;0.57;;;;;;;1.82;75.14;101260.50;5106205;28;20387;-73
2023/02/10 06:25:54;;;;;;;0.60;0.60;;;;;;;1.80;74.23;101274.94;5106115;28;20031;-76
2023/02/10 06:28:23;;;;;;;0.60;0.60;;;;;;;1.79;72.40;101277.44;5105934;28;20020;-78
2023/02/10 06:30:49;;;;;;;0.52;0.52;;;;;;;1.80;72.45;101280.06;5105950;28;20020;-81
2023/02/10 06:33:15;;;;;;;0.60;0.60;;;;;;;1.89;74.59;101296.59;5106013;28;20077;-78
2023/02/10 06:35:40;;;;;;;0.60;0.60;;;;;;;1.84;74.41;101297.28;5088439;28;20130;-77
2023/02/10 06:38:06;;;;;;;0.60;0.60;;;;;;;1.83;74.67;101302.34;5087963;28;20043;-76
2023/02/10 06:40:31;;;;;;;0.60;0.60;;;;;;;1.89;75.92;101314.50;5105868;28;20015;-76
2023/02/10 06:42:57;;;;;;;0.52;0.52;;;;;;;1.83;74.70;101315.16;5105714;28;20099;-76
2023/02/10 06:45:22;;;;;;;0.60;0.60;;;;;;;1.78;74.92;101308.94;5105416;28;20242;-76
2023/02/10 06:47:48;;;;;;;0.57;0.57;;;;;;;1.71;75.35;101289.91;5105381;28;20048;-76
2023/02/10 06:50:14;;;;;;;0.60;0.60;;;;;;;1.79;75.32;101323.53;5105711;28;20020;-75
2023/02/10 06:52:39;;;;;;;0.60;0.60;;;;;;;1.76;74.30;101331.06;5105772;28;20028;-75
2023/02/10 06:55:06;;;;;;;0.60;0.60;;;;;;;1.70;74.40;101323.97;5105742;28;20028;-76
2023/02/10 06:57:32;;;;;;;0.60;0.60;;;;;;;1.71;75.04;101331.72;5087375;28;20086;-75
2023/02/10 06:59:58;;;;;;;0.60;0.60;;;;;;;1.72;74.14;101343.75;5105797;28;20050;-76
2023/02/10 07:02:24;;;;;;;0.55;0.55;;;;;;;1.75;75.22;101342.09;5104193;28;20032;-75
2023/02/10 07:04:50;;;;;;;0.50;0.50;;;;;;;1.80;76.06;101356.88;5111245;28;20034;-76
2023/02/10 07:07:16;;;;;;;0.52;0.52;;;;;;;1.77;77.07;101354.19;5109321;28;20055;-76
2023/02/10 07:09:41;;;;;;;0.57;0.57;;;;;;;1.88;78.67;101357.19;5105865;28;20016;-75
2023/02/10 07:12:07;;;;;;;0.60;0.60;;;;;;;1.82;78.63;101351.81;5086985;28;20054;-72
2023/02/10 07:14:32;;;;;;;0.50;0.50;;;;;;;1.83;77.50;101344.19;5105536;28;20214;-72
2023/02/10 07:16:58;;;;;;;0.50;0.50;;;;;;;1.89;78.00;101338.44;5105190;28;20024;-75
2023/02/10 07:19:23;;;;;;;0.57;0.57;;;;;;;1.93;78.27;101342.03;5105588;28;20047;-75
2023/02/10 07:21:49;;;;;;;0.60;0.60;;;;;;;2.05;77.72;101351.91;5110171;28;20027;-75
2023/02/10 07:24:15;;;;;;;0.50;0.50;;;;;;;2.10;76.34;101358.97;5093757;28;20020;-76
2023/02/10 07:26:40;;;;;;;0.50;0.50;;;;;;;2.21;77.38;101356.84;5111528;28;20031;-74
2023/02/10 07:29:06;;;;;;;2.05;1.95;;;;;;;2.27;77.22;101358.78;5110895;28;20039;-74
2023/02/10 07:31:34;;;;;;;0.50;0.50;;;;;;;2.35;77.84;101356.53;5111631;28;20038;-74
2023/02/10 07:34:01;;;;;;;0.57;0.57;;;;;;;2.50;78.29;101371.69;5111886;28;20084;-74
2023/02/10 07:36:27;;;;;;;0.60;0.60;;;;;;;2.62;79.18;101381.53;5112452;28;20057;-76
2023/02/10 07:38:53;;;;;;;0.60;0.60;;;;;;;2.84;78.45;101375.56;5112104;28;20053;-75
2023/02/10 07:41:18;;;;;;;0.50;0.50;;;;;;;3.03;79.22;101372.84;5112202;28;20111;-76
2023/02/10 07:43:44;;;;;;;0.60;0.60;;;;;;;3.31;80.06;101382.47;5112560;28;20025;-74
2023/02/10 07:46:09;;;;;;;0.50;0.50;;;;;;;3.50;78.61;101369.44;5112615;28;20395;-74
2023/02/10 07:48:34;;;;;;;0.50;0.50;;;;;;;3.77;75.95;101379.81;5112451;28;20460;-75
2023/02/10 07:51:00;;;;;;;0.60;0.60;;;;;;;3.89;75.52;101374.25;5112629;28;20472;-75
2023/02/10 07:53:25;;;;;;;0.50;0.50;;;;;;;3.98;71.27;101378.81;5113283;28;20027;-75
2023/02/10 07:55:51;;;;;;;0.50;0.50;;;;;;;4.02;71.89;101370.41;5117056;28;20191;-76
2023/02/10 07:58:16;;;;;;;0.52;0.52;;;;;;;4.12;72.86;101370.72;5116908;28;20351;-74
2023/02/10 08:00:41;;;;;;;0.50;0.50;;;;;;;4.31;72.07;101373.06;5115822;28;20016;-74
2023/02/10 08:03:12;;;;;;;0.50;0.50;;;;;;;4.54;71.88;101379.78;5099199;28;20016;-76
2023/02/10 08:05:38;;;;;;;0.50;0.50;;;;;;;4.82;69.72;101372.97;5113958;28;20028;-76
2023/02/10 08:08:03;;;;;;;0.50;0.50;;;;;;;5.26;70.17;101374.22;5093636;28;20518;-75
2023/02/10 08:10:29;;;;;;;0.50;0.50;;;;;;;5.82;72.14;101370.63;5111480;28;20472;-76
2023/02/10 08:12:54;;;;;;;0.50;0.50;;;;;;;6.26;69.66;101370.06;5111700;28;20035;-75
2023/02/10 08:15:22;;;;;;;0.50;0.50;;;;;;;6.62;70.25;101364.91;5111165;28;20051;-74
2023/02/10 08:17:47;;;;;;;0.50;0.50;;;;;;;6.81;66.60;101353.28;5111328;28;20024;-76
2023/02/10 08:20:13;;;;;;;0.50;0.50;;;;;;;6.93;68.03;101363.03;5112347;28;20031;-75
2023/02/10 08:22:38;;;;;;;2.22;2.08;;;;;;;6.99;68.56;101367.44;5093332;28;20031;-75
2023/02/10 08:25:04;;;;;;;0.50;0.50;;;;;;;7.17;70.49;101383.34;5111042;28;20032;-75
2023/02/10 08:27:30;;;;;;;0.50;0.50;;;;;;;7.41;70.87;101392.44;5111741;28;20024;-74
2023/02/10 08:29:55;;;;;;;0.50;0.50;;;;;;;7.56;70.79;101378.09;5092694;28;20136;-74
2023/02/10 08:32:22;;;;;;;0.50;0.50;;;;;;;7.57;69.21;101400.53;5108688;28;21011;-74
2023/02/10 08:34:48;;;;;;;0.50;0.50;;;;;;;7.93;69.13;101412.44;5106288;28;20028;-74
2023/02/10 08:37:14;;;;;;;0.50;0.50;;;;;;;8.34;68.34;101427.78;5108248;28;20102;-74
2023/02/10 08:39:40;;;;;;;0.50;0.50;;;;;;;8.77;69.33;101427.66;5108375;28;20028;-74
2023/02/10 08:42:06;;;;;;;0.40;0.40;;;;;;;9.45;64.56;101416.50;5108192;28;20055;-73
2023/02/10 08:44:32;;;;;;;0.40;0.40;;;;;;;9.62;62.33;101427.06;5107680;28;20020;-73
2023/02/10 08:46:57;;;;;;;0.50;0.50;;;;;;;9.75;63.61;101418.59;5107746;28;20453;-74
2023/02/10 08:49:24;;;;;;;1.83;1.73;;;;;;;9.94;62.49;101423.97;5108171;28;20030;-74
2023/02/10 08:51:51;;;;;;;3.08;2.88;;;;;;;10.13;60.66;101425.03;5107962;28;20031;-74
2023/02/10 08:54:16;;;;;;;0.50;0.50;;;;;;;10.27;62.18;101416.53;5108068;28;20089;-73
2023/02/10 08:56:42;;;;;;;0.40;0.40;;;;;;;10.56;61.83;101420.25;5108007;28;20452;-75
2023/02/10 08:59:07;;;;;;;0.40;0.40;;;;;;;10.64;60.10;101421.16;5108284;28;20030;-74
2023/02/10 09:01:33;;;;;;;0.50;0.50;;;;;;;10.75;60.01;101424.72;5107870;28;20036;-74
2023/02/10 09:03:58;;;;;;;0.50;0.50;;;;;;;11.02;60.48;101419.72;5107687;28;20016;-76
2023/02/10 09:06:32;;;;;;;0.40;0.40;;;;;;;11.27;61.05;101409.44;5107835;28;20084;-74
2023/02/10 09:08:59;;;;;;;2.22;2.08;;;;;;;11.41;57.82;101404.28;5107610;28;20081;-74
2023/02/10 09:11:26;;;;;;;0.40;0.40;;;;;;;11.85;60.78;101407.91;5089393;28;20476;-76
2023/02/10 09:13:52;;;;;;;0.40;0.40;;;;;;;12.03;55.73;101408.81;5107684;28;20028;-74
2023/02/10 09:16:18;;;;;;;0.40;0.40;;;;;;;12.26;57.14;101400.19;5107674;28;20024;-75
2023/02/10 09:18:44;;;;;;;0.40;0.40;;;;;;;12.25;56.61;101390.66;5108430;28;20154;-74
2023/02/10 09:21:09;;;;;;;0.40;0.40;;;;;;;12.37;54.56;101400.19;5109829;28;20020;-74
2023/02/10 09:23:35;;;;;;;0.40;0.40;;;;;;;12.39;57.65;101388.94;5107375;28;20391;-75
2023/02/10 09:26:01;;;;;;;0.40;0.40;;;;;;;12.93;58.47;101394.06;5089592;28;20049;-74
2023/02/10 09:28:27;;;;;;;0.50;0.50;;;;;;;13.43;59.35;101393.91;5107373;28;20023;-74
2023/02/10 09:30:53;;;;;;;27.30;2.85;;;;;;;13.90;59.96;101399.75;5107273;28;20028;-74
2023/02/10 09:33:18;;;;;;;0.40;0.40;;;;;;;14.11;60.04;101400.47;5107149;28;20411;-76
2023/02/10 09:35:44;;;;;;;0.40;0.40;;;;;;;13.69;61.42;101401.59;5107177;28;20024;-75
2023/02/10 09:38:11;;;;;;;0.30;0.30;;;;;;;13.46;60.44;101399.97;5089090;28;20020;-74
2023/02/10 09:41:03;;;;;;;0.40;0.40;;;;;;;13.76;58.29;101407.66;5107798;28;20020;-76
2023/02/10 09:43:55;;;;;;;0.60;0.60;;;;;;;14.05;59.51;101413.59;5087151;28;20028;-75
2023/02/10 09:46:40;;;;;;;;;;;;;;;13.44;58.25;101406.94;5107617;28;20020;-76
2023/02/10 09:49:36;;;;;;;0.30;0.30;;;;;;;13.17;61.13;101408.75;5088564;28;19916;-76
2023/02/10 09:52:31;;;;;;;0.30;0.30;;;;;;;12.85;52.74;101410.59;5106958;28;20032;-75
2023/02/10 09:54:59;;;;;;;0.30;0.30;;;;;;;12.50;58.51;101407.16;5106713;28;20360;-75
2023/02/10 09:57:30;;;;;;;0.30;0.30;;;;;;;12.55;63.39;101414.09;5106749;28;20028;-75
2023/02/10 09:59:57;;;;;;;0.40;0.40;;;;;;;12.29;60.60;101402.78;5106754;28;20068;-76
2023/02/10 10:02:39;;;;;;;0.40;0.40;;;;;;;12.21;58.52;101413.22;5106491;28;20055;-75
2023/02/10 10:05:19;;;;;;;2.72;2.60;;;;;;;11.82;55.94;101418.31;5106629;28;20031;-75
2023/02/10 10:07:50;;;;;;;1.02;0.98;;;;;;;11.42;53.79;101420.78;5106775;28;20091;-75
2023/02/10 10:10:40;;;;;;;0.40;0.40;;;;;;;11.25;56.68;101430.22;5106559;28;20051;-74
2023/02/10 10:13:14;;;;;;;1.23;1.00;;;;;;;11.35;59.31;101422.47;5106629;28;20063;-75
2023/02/10 10:16:01;;;;;;;0.45;0.45;;;;;;;11.30;58.60;101413.78;5106348;28;20024;-75
2023/02/10 10:18:40;;;;;;;0.40;0.40;;;;;;;10.74;57.50;101429.91;5106382;28;20024;-75
2023/02/10 10:21:21;;;;;;;0.40;0.40;;;;;;;10.00;56.68;101415.41;5106386;28;20016;-75
2023/02/10 10:23:54;;;;;;;0.40;0.40;;;;;;;9.65;57.39;101415.03;5106441;28;20039;-75
2023/02/10 10:26:41;;;;;;;0.43;0.43;;;;;;;9.38;57.36;101423.31;5106627;28;20035;-76
2023/02/10 10:29:26;;;;;;;0.50;0.50;;;;;;;9.10;58.39;101426.41;5106225;28;20035;-75
2023/02/10 10:32:23;;;;;;;0.70;0.70;;;;;;;9.24;59.98;101429.19;5108893;28;20059;-74
2023/02/10 10:34:52;;;;;;;0.50;0.50;;;;;;;9.42;59.63;101413.00;5112092;28;20103;-75
2023/02/10 10:37:24;;;;;;;0.47;0.47;;;;;;;9.62;59.10;101440.03;5108541;28;20028;-75
2023/02/10 10:39:54;;;;;;;0.60;0.60;;;;;;;9.84;59.32;101440.31;5106100;28;20361;-75
2023/02/10 10:42:27;;;;;;;0.50;0.50;;;;;;;9.77;60.67;101434.16;5105856;28;20092;-75
2023/02/10 10:45:02;;;;;;;0.40;0.40;;;;;;;9.46;59.65;101432.06;5106154;28;20020;-74
2023/02/10 10:47:59;;;;;;;0.45;0.45;;;;;;;9.17;62.17;101433.41;5105378;28;20048;-74
2023/02/10 10:50:24;;;;;;;0.50;0.50;;;;;;;9.01;62.15;101429.75;5076643;28;20036;-75
2023/02/10 10:52:52;;;;;;;0.43;0.43;;;;;;;8.86;62.36;101420.03;5087378;28;20023;-74
2023/02/10 10:55:24;;;;;;;0.50;0.50;;;;;;;8.58;61.05;101424.75;5104970;28;20024;-74
2023/02/10 10:57:52;;;;;;;0.60;0.60;;;;;;;8.24;60.64;101421.59;5087695;28;20020;-75
2023/02/10 11:00:25;;;;;;;0.50;0.50;;;;;;;7.93;62.41;101430.53;5105761;28;20434;-73
2023/02/10 11:02:57;;;;;;;0.50;0.50;;;;;;;7.57;61.47;101428.97;5087392;28;20020;-73
2023/02/10 11:05:28;;;;;;;0.70;0.70;;;;;;;7.31;63.25;101427.56;5105994;28;20049;-74
2023/02/10 11:07:55;;;;;;;0.60;0.60;;;;;;;7.02;61.40;101438.13;5105674;28;20028;-73
2023/02/10 11:10:53;;;;;;;1.35;1.35;;;;;;;6.71;61.24;101441.69;5087339;28;20035;-74
2023/02/10 11:13:27;;;;;;;0.47;0.47;;;;;;;6.52;63.33;101423.13;5086743;28;20032;-74
2023/02/10 11:16:06;;;;;;;0.50;0.50;;;;;;;6.30;62.91;101422.59;5105744;28;20028;-75
2023/02/10 11:18:32;;;;;;;0.43;0.43;;;;;;;6.26;63.80;101413.06;5105118;28;20024;-74
2023/02/10 11:21:05;;;;;;;0.50;0.50;;;;;;;6.11;63.38;101410.94;5105380;28;20020;-74
2023/02/10 11:23:30;;;;;;;0.50;0.50;;;;;;;6.08;63.66;101401.44;5105421;28;20048;-74
2023/02/10 11:25:59;;;;;;;0.50;0.50;;;;;;;5.97;63.08;101397.66;5105141;28;20047;-74
2023/02/10 11:28:27;;;;;;;0.50;0.50;;;;;;;5.93;62.89;101391.53;5104087;28;20020;-74
2023/02/10 11:31:24;;;;;;;0.55;0.55;;;;;;;5.81;61.91;101394.69;5104073;28;20035;-74
2023/02/10 11:34:03;;;;;;;0.50;0.50;;;;;;;5.77;63.99;101385.09;5105118;28;20514;-74
2023/02/10 11:36:35;;;;;;;1.83;1.73;;;;;;;5.73;65.03;101386.75;5086969;28;20028;-74
2023/02/10 11:39:02;;;;;;;;;;;;;;;5.68;64.82;101385.72;5105295;28;20030;-74